createdAt,value
2017-06-19T00:09:18.872Z,17.746798
2017-06-19T00:29:23.922Z,17.496886
2017-06-19T00:49:29.203Z,17.246973999999998
2017-06-19T01:09:34.145Z,16.997062
2017-06-19T01:29:39.140Z,16.809628
2017-06-19T01:49:44.131Z,16.622194
2017-06-19T02:09:49.155Z,16.434759999999997
2017-06-19T02:29:54.494Z,16.309804
2017-06-19T02:49:59.270Z,16.059891999999998
2017-06-19T03:10:04.286Z,15.934401999999999
2017-06-19T03:30:09.324Z,15.871924
2017-06-19T03:50:14.389Z,15.871924
2017-06-19T04:10:19.440Z,16.059891999999998
2017-06-19T04:30:24.471Z,16.247325999999997
2017-06-19T04:50:29.547Z,16.684672
2017-06-19T05:10:34.564Z,17.246973999999998
2017-06-19T05:30:39.590Z,17.871754
2017-06-19T05:50:44.658Z,18.622024
2017-06-19T06:10:49.704Z,19.309282
2017-06-19T06:30:54.815Z,19.99654
2017-06-19T06:50:59.779Z,20.996722
2017-06-19T07:11:04.835Z,21.68398
2017-06-19T07:31:09.873Z,22.371237999999998
2017-06-19T07:51:14.904Z,22.808584
2017-06-19T08:11:20.010Z,23.183985999999997
2017-06-19T08:31:25.040Z,23.996199999999998
2017-06-19T08:51:30.034Z,24.62098
2017-06-19T09:11:35.090Z,24.808414
2017-06-19T16:13:21.464Z,28.183293999999997
2017-06-19T16:33:26.259Z,29.432854
2017-06-19T16:53:31.270Z,29.620287999999995
2017-06-19T17:13:36.368Z,29.745244
2017-06-19T17:33:41.394Z,29.432854
2017-06-19T17:53:46.415Z,29.245419999999996
2017-06-19T18:13:51.468Z,28.870551999999996
2017-06-19T18:33:56.501Z,28.370728
2017-06-19T18:54:00.576Z,27.99586
2017-06-19T19:14:05.826Z,27.68347
2017-06-19T19:34:10.636Z,26.495853999999998
2017-06-19T19:54:15.681Z,25.37125
2017-06-19T20:14:20.699Z,24.62098
2017-06-19T20:34:25.752Z,24.121156
2017-06-19T20:54:30.792Z,23.496375999999998
2017-06-19T21:14:35.821Z,22.871062
2017-06-19T21:34:40.868Z,22.433715999999997
2017-06-19T21:54:45.912Z,22.058847999999998
2017-06-19T22:14:50.998Z,21.871413999999998
2017-06-19T22:34:55.980Z,21.371589999999998
